sensor_id;sensor_type;location;lat;lon;timestamp;pressure;altitude;pressure_sealevel;temperature;humidity
50356;BME280;36264;51.296;-0.602;2023-04-29T00:01:07;101531.31;;;17.75;66.52
50356;BME280;36264;51.296;-0.602;2023-04-29T00:03:33;101527.91;;;17.73;66.34
50356;BME280;36264;51.296;-0.602;2023-04-29T00:05:59;101526.50;;;17.66;66.31
50356;BME280;36264;51.296;-0.602;2023-04-29T00:08:25;101535.16;;;17.68;66.21
50356;BME280;36264;51.296;-0.602;2023-04-29T00:10:50;101536.19;;;17.65;66.06
50356;BME280;36264;51.296;-0.602;2023-04-29T00:13:16;101535.59;;;17.59;66.17
50356;BME280;36264;51.296;-0.602;2023-04-29T00:15:42;101541.88;;;17.56;65.99
50356;BME280;36264;51.296;-0.602;2023-04-29T00:18:07;101543.34;;;17.62;65.92
50356;BME280;36264;51.296;-0.602;2023-04-29T00:20:33;101535.06;;;17.52;65.88
50356;BME280;36264;51.296;-0.602;2023-04-29T00:22:59;101551.16;;;17.44;65.96
50356;BME280;36264;51.296;-0.602;2023-04-29T00:25:24;101546.19;;;17.38;66.05
50356;BME280;36264;51.296;-0.602;2023-04-29T00:27:50;101542.19;;;17.31;66.13
50356;BME280;36264;51.296;-0.602;2023-04-29T00:30:15;101542.19;;;17.31;66.03
50356;BME280;36264;51.296;-0.602;2023-04-29T00:32:41;101540.38;;;17.31;65.94
50356;BME280;36264;51.296;-0.602;2023-04-29T00:35:08;101545.00;;;17.45;65.69
50356;BME280;36264;51.296;-0.602;2023-04-29T00:37:33;101548.53;;;17.44;65.08
50356;BME280;36264;51.296;-0.602;2023-04-29T00:39:59;101548.81;;;17.38;65.11
50356;BME280;36264;51.296;-0.602;2023-04-29T00:42:24;101542.03;;;17.34;65.30
50356;BME280;36264;51.296;-0.602;2023-04-29T00:44:50;101542.03;;;17.34;65.14
50356;BME280;36264;51.296;-0.602;2023-04-29T00:47:15;101537.75;;;17.31;65.09
50356;BME280;36264;51.296;-0.602;2023-04-29T00:49:41;101542.19;;;17.31;65.14
50356;BME280;36264;51.296;-0.602;2023-04-29T00:52:10;101552.59;;;17.51;64.94
50356;BME280;36264;51.296;-0.602;2023-04-29T00:54:36;101552.59;;;17.32;64.64
50356;BME280;36264;51.296;-0.602;2023-04-29T00:57:03;101554.88;;;17.40;64.84
50356;BME280;36264;51.296;-0.602;2023-04-29T00:59:28;101553.66;;;17.28;64.65
50356;BME280;36264;51.296;-0.602;2023-04-29T01:02:03;101557.28;;;17.45;64.48
50356;BME280;36264;51.296;-0.602;2023-04-29T01:04:29;101558.28;;;17.23;64.78
50356;BME280;36264;51.296;-0.602;2023-04-29T01:14:53;101549.56;;;17.23;64.25
50356;BME280;36264;51.296;-0.602;2023-04-29T01:17:24;101550.19;;;17.09;64.03
50356;BME280;36264;51.296;-0.602;2023-04-29T01:19:57;101550.19;;;17.09;63.98
50356;BME280;36264;51.296;-0.602;2023-04-29T01:22:23;101553.50;;;16.73;64.45
50356;BME280;36264;51.296;-0.602;2023-04-29T01:24:48;101561.22;;;16.76;64.61
50356;BME280;36264;51.296;-0.602;2023-04-29T01:27:30;101552.69;;;17.12;64.18
50356;BME280;36264;51.296;-0.602;2023-04-29T01:30:11;101555.22;;;17.13;64.28
50356;BME280;36264;51.296;-0.602;2023-04-29T01:33:02;101551.97;;;17.08;64.12
50356;BME280;36264;51.296;-0.602;2023-04-29T01:35:43;101553.63;;;16.90;64.46
50356;BME280;36264;51.296;-0.602;2023-04-29T01:38:15;101556.06;;;16.54;64.75
50356;BME280;36264;51.296;-0.602;2023-04-29T01:40:47;101553.88;;;16.84;64.61
50356;BME280;36264;51.296;-0.602;2023-04-29T01:43:22;101557.25;;;16.88;64.51
50356;BME280;36264;51.296;-0.602;2023-04-29T01:45:49;101559.28;;;16.60;64.63
50356;BME280;36264;51.296;-0.602;2023-04-29T01:48:15;101560.41;;;16.55;64.49
50356;BME280;36264;51.296;-0.602;2023-04-29T01:50:42;101563.63;;;16.41;64.66
50356;BME280;36264;51.296;-0.602;2023-04-29T01:53:07;101557.00;;;16.32;64.59
50356;BME280;36264;51.296;-0.602;2023-04-29T01:55:33;101559.75;;;16.29;64.61
50356;BME280;36264;51.296;-0.602;2023-04-29T01:57:58;101558.09;;;16.26;64.64
50356;BME280;36264;51.296;-0.602;2023-04-29T02:00:23;101561.63;;;16.25;64.70
50356;BME280;36264;51.296;-0.602;2023-04-29T02:02:49;101563.41;;;16.25;64.61
50356;BME280;36264;51.296;-0.602;2023-04-29T02:05:14;101564.31;;;16.24;64.60
50356;BME280;36264;51.296;-0.602;2023-04-29T02:07:40;101557.63;;;16.17;64.47
50356;BME280;36264;51.296;-0.602;2023-04-29T02:10:06;101568.06;;;16.18;64.34
50356;BME280;36264;51.296;-0.602;2023-04-29T02:12:32;101566.91;;;16.03;64.43
50356;BME280;36264;51.296;-0.602;2023-04-29T02:14:57;101558.25;;;16.01;64.39
50356;BME280;36264;51.296;-0.602;2023-04-29T02:17:24;101575.94;;;15.96;64.26
50356;BME280;36264;51.296;-0.602;2023-04-29T02:19:49;101563.94;;;15.90;64.12
50356;BME280;36264;51.296;-0.602;2023-04-29T02:22:15;101570.22;;;15.86;63.96
50356;BME280;36264;51.296;-0.602;2023-04-29T02:24:41;101572.03;;;15.84;64.25
50356;BME280;36264;51.296;-0.602;2023-04-29T02:27:06;101574.59;;;15.86;64.13
50356;BME280;36264;51.296;-0.602;2023-04-29T02:29:31;101582.44;;;15.86;64.18
50356;BME280;36264;51.296;-0.602;2023-04-29T02:31:57;101581.72;;;15.82;63.96
50356;BME280;36264;51.296;-0.602;2023-04-29T02:34:23;101586.25;;;15.79;63.89
50356;BME280;36264;51.296;-0.602;2023-04-29T02:36:48;101585.34;;;15.80;63.75
50356;BME280;36264;51.296;-0.602;2023-04-29T02:39:14;101587.59;;;15.65;63.38
50356;BME280;36264;51.296;-0.602;2023-04-29T02:41:39;101588.03;;;15.54;63.44
50356;BME280;36264;51.296;-0.602;2023-04-29T02:44:06;101584.59;;;15.52;63.77
50356;BME280;36264;51.296;-0.602;2023-04-29T02:46:31;101586.31;;;15.53;63.77
50356;BME280;36264;51.296;-0.602;2023-04-29T02:48:59;101583.81;;;15.50;63.75
50356;BME280;36264;51.296;-0.602;2023-04-29T02:51:25;101584.94;;;15.43;63.83
50356;BME280;36264;51.296;-0.602;2023-04-29T02:53:51;101585.88;;;15.42;63.59
50356;BME280;36264;51.296;-0.602;2023-04-29T02:56:17;101592.13;;;15.38;63.74
50356;BME280;36264;51.296;-0.602;2023-04-29T02:58:42;101587.06;;;15.33;63.79
50356;BME280;36264;51.296;-0.602;2023-04-29T03:01:08;101600.91;;;15.37;63.90
50356;BME280;36264;51.296;-0.602;2023-04-29T03:03:33;101593.91;;;15.37;64.18
50356;BME280;36264;51.296;-0.602;2023-04-29T03:05:58;101590.50;;;15.35;64.07
50356;BME280;36264;51.296;-0.602;2023-04-29T03:08:23;101594.91;;;15.33;63.99
50356;BME280;36264;51.296;-0.602;2023-04-29T03:10:49;101595.72;;;15.35;63.80
50356;BME280;36264;51.296;-0.602;2023-04-29T03:13:14;101595.34;;;15.23;63.92
50356;BME280;36264;51.296;-0.602;2023-04-29T03:15:40;101595.19;;;15.26;63.53
50356;BME280;36264;51.296;-0.602;2023-04-29T03:18:05;101584.69;;;15.03;63.93
50356;BME280;36264;51.296;-0.602;2023-04-29T03:20:31;101590.78;;;15.04;63.78
50356;BME280;36264;51.296;-0.602;2023-04-29T03:22:57;101580.81;;;15.14;63.30
50356;BME280;36264;51.296;-0.602;2023-04-29T03:25:22;101584.44;;;15.10;63.26
50356;BME280;36264;51.296;-0.602;2023-04-29T03:27:48;101589.78;;;15.07;63.10
50356;BME280;36264;51.296;-0.602;2023-04-29T03:30:13;101574.34;;;15.00;63.14
50356;BME280;36264;51.296;-0.602;2023-04-29T03:32:38;101577.16;;;14.94;63.05
50356;BME280;36264;51.296;-0.602;2023-04-29T03:35:04;101581.47;;;14.95;63.04
50356;BME280;36264;51.296;-0.602;2023-04-29T03:37:29;101581.94;;;14.83;62.79
50356;BME280;36264;51.296;-0.602;2023-04-29T03:39:55;101586.41;;;14.79;62.72
50356;BME280;36264;51.296;-0.602;2023-04-29T03:42:20;101582.94;;;14.79;63.01
50356;BME280;36264;51.296;-0.602;2023-04-29T03:44:46;101589.22;;;14.73;62.71
50356;BME280;36264;51.296;-0.602;2023-04-29T03:47:11;101600.72;;;14.69;62.61
50356;BME280;36264;51.296;-0.602;2023-04-29T03:49:38;101593.78;;;14.68;62.68
50356;BME280;36264;51.296;-0.602;2023-04-29T03:52:03;101601.50;;;14.71;63.07
50356;BME280;36264;51.296;-0.602;2023-04-29T03:54:29;101585.53;;;14.54;62.72
50356;BME280;36264;51.296;-0.602;2023-04-29T03:56:55;101603.66;;;14.58;62.75
50356;BME280;36264;51.296;-0.602;2023-04-29T03:59:20;101608.03;;;14.58;62.71
50356;BME280;36264;51.296;-0.602;2023-04-29T04:01:46;101609.78;;;14.57;62.69
50356;BME280;36264;51.296;-0.602;2023-04-29T04:04:11;101613.31;;;14.56;62.29
50356;BME280;36264;51.296;-0.602;2023-04-29T04:06:36;101615.16;;;14.53;62.33
50356;BME280;36264;51.296;-0.602;2023-04-29T04:09:02;101614.53;;;14.46;62.38
50356;BME280;36264;51.296;-0.602;2023-04-29T04:11:27;101623.41;;;14.42;62.47
50356;BME280;36264;51.296;-0.602;2023-04-29T04:13:52;101622.47;;;14.43;62.01
50356;BME280;36264;51.296;-0.602;2023-04-29T04:16:18;101629.63;;;14.38;62.09
50356;BME280;36264;51.296;-0.602;2023-04-29T04:18:43;101631.28;;;14.40;62.09
50356;BME280;36264;51.296;-0.602;2023-04-29T04:21:10;101630.66;;;14.59;62.04
50356;BME280;36264;51.296;-0.602;2023-04-29T04:23:37;101624.88;;;14.49;62.16
50356;BME280;36264;51.296;-0.602;2023-04-29T04:26:05;101633.94;;;14.39;61.83
50356;BME280;36264;51.296;-0.602;2023-04-29T04:28:31;101642.72;;;14.36;61.80
50356;BME280;36264;51.296;-0.602;2023-04-29T04:30:56;101645.34;;;14.36;61.87
50356;BME280;36264;51.296;-0.602;2023-04-29T04:33:23;101642.88;;;14.31;61.61
50356;BME280;36264;51.296;-0.602;2023-04-29T04:35:48;101646.50;;;14.27;61.39
50356;BME280;36264;51.296;-0.602;2023-04-29T04:38:13;101651.88;;;14.23;61.89
50356;BME280;36264;51.296;-0.602;2023-04-29T04:40:42;101652.44;;;14.59;61.75
50356;BME280;36264;51.296;-0.602;2023-04-29T04:43:08;101661.25;;;14.28;61.55
50356;BME280;36264;51.296;-0.602;2023-04-29T04:45:33;101662.19;;;14.27;61.52
50356;BME280;36264;51.296;-0.602;2023-04-29T04:47:59;101664.94;;;14.23;61.24
50356;BME280;36264;51.296;-0.602;2023-04-29T04:50:28;101670.25;;;14.48;61.30
50356;BME280;36264;51.296;-0.602;2023-04-29T04:52:57;101667.41;;;14.27;61.57
50356;BME280;36264;51.296;-0.602;2023-04-29T04:55:22;101685.91;;;14.21;61.56
50356;BME280;36264;51.296;-0.602;2023-04-29T04:57:48;101673.03;;;14.15;61.63
50356;BME280;36264;51.296;-0.602;2023-04-29T05:00:14;101685.16;;;14.16;61.63
50356;BME280;36264;51.296;-0.602;2023-04-29T05:02:40;101680.84;;;14.15;61.65
50356;BME280;36264;51.296;-0.602;2023-04-29T05:05:06;101692.81;;;14.22;61.51
50356;BME280;36264;51.296;-0.602;2023-04-29T05:07:32;101695.44;;;14.22;61.73
50356;BME280;36264;51.296;-0.602;2023-04-29T05:10:00;101700.69;;;14.21;61.79
50356;BME280;36264;51.296;-0.602;2023-04-29T05:12:27;101698.56;;;14.34;61.60
50356;BME280;36264;51.296;-0.602;2023-04-29T05:14:55;101694.53;;;14.23;61.78
50356;BME280;36264;51.296;-0.602;2023-04-29T05:17:20;101697.25;;;14.20;61.71
50356;BME280;36264;51.296;-0.602;2023-04-29T05:19:46;101702.56;;;14.17;61.86
50356;BME280;36264;51.296;-0.602;2023-04-29T05:22:11;101705.16;;;14.17;61.84
50356;BME280;36264;51.296;-0.602;2023-04-29T05:24:36;101703.25;;;14.22;61.89
50356;BME280;36264;51.296;-0.602;2023-04-29T05:27:02;101705.84;;;14.24;62.24
50356;BME280;36264;51.296;-0.602;2023-04-29T05:29:28;101709.94;;;14.32;62.13
50356;BME280;36264;51.296;-0.602;2023-04-29T05:31:53;101701.25;;;14.30;62.05
50356;BME280;36264;51.296;-0.602;2023-04-29T05:34:19;101708.91;;;14.37;61.94
50356;BME280;36264;51.296;-0.602;2023-04-29T05:36:44;101715.84;;;14.38;62.02
50356;BME280;36264;51.296;-0.602;2023-04-29T05:39:10;101708.97;;;14.35;62.14
50356;BME280;36264;51.296;-0.602;2023-04-29T05:41:36;101710.53;;;14.41;62.18
50356;BME280;36264;51.296;-0.602;2023-04-29T05:44:01;101720.00;;;14.45;62.25
50356;BME280;36264;51.296;-0.602;2023-04-29T05:46:27;101720.66;;;14.52;62.27
50356;BME280;36264;51.296;-0.602;2023-04-29T05:48:52;101714.41;;;14.56;62.24
50356;BME280;36264;51.296;-0.602;2023-04-29T05:51:18;101698.03;;;14.50;62.27
50356;BME280;36264;51.296;-0.602;2023-04-29T05:53:44;101719.38;;;14.65;62.22
50356;BME280;36264;51.296;-0.602;2023-04-29T05:56:09;101721.09;;;14.66;62.46
50356;BME280;36264;51.296;-0.602;2023-04-29T05:58:35;101727.91;;;14.70;62.58
50356;BME280;36264;51.296;-0.602;2023-04-29T06:01:00;101726.19;;;14.71;62.54
50356;BME280;36264;51.296;-0.602;2023-04-29T06:03:26;101724.25;;;14.76;62.42
50356;BME280;36264;51.296;-0.602;2023-04-29T06:05:52;101731.00;;;14.83;62.86
50356;BME280;36264;51.296;-0.602;2023-04-29T06:08:18;101721.25;;;14.88;62.71
50356;BME280;36264;51.296;-0.602;2023-04-29T06:10:43;101723.03;;;14.86;62.80
50356;BME280;36264;51.296;-0.602;2023-04-29T06:13:10;101722.19;;;14.85;62.82
50356;BME280;36264;51.296;-0.602;2023-04-29T06:15:35;101728.16;;;14.89;63.08
50356;BME280;36264;51.296;-0.602;2023-04-29T06:18:01;101728.22;;;14.88;63.20
50356;BME280;36264;51.296;-0.602;2023-04-29T06:20:26;101725.41;;;15.19;63.06
50356;BME280;36264;51.296;-0.602;2023-04-29T06:22:51;101726.75;;;15.31;62.94
50356;BME280;36264;51.296;-0.602;2023-04-29T06:25:17;101729.34;;;15.32;62.71
50356;BME280;36264;51.296;-0.602;2023-04-29T06:27:42;101730.69;;;15.43;62.62
50356;BME280;36264;51.296;-0.602;2023-04-29T06:30:08;101736.63;;;15.48;62.68
50356;BME280;36264;51.296;-0.602;2023-04-29T06:32:33;101730.03;;;15.61;62.41
50356;BME280;36264;51.296;-0.602;2023-04-29T06:34:59;101741.94;;;15.70;62.55
50356;BME280;36264;51.296;-0.602;2023-04-29T06:37:25;101744.25;;;15.79;62.64
50356;BME280;36264;51.296;-0.602;2023-04-29T06:39:50;101741.41;;;15.85;62.68
50356;BME280;36264;51.296;-0.602;2023-04-29T06:42:16;101749.78;;;15.95;62.72
50356;BME280;36264;51.296;-0.602;2023-04-29T06:44:41;101744.34;;;16.00;62.96
50356;BME280;36264;51.296;-0.602;2023-04-29T06:47:07;101751.03;;;16.08;63.32
50356;BME280;36264;51.296;-0.602;2023-04-29T06:49:32;101756.94;;;16.14;63.49
50356;BME280;36264;51.296;-0.602;2023-04-29T06:51:58;101761.34;;;16.13;63.81
50356;BME280;36264;51.296;-0.602;2023-04-29T06:54:23;101767.31;;;16.17;63.84
50356;BME280;36264;51.296;-0.602;2023-04-29T06:56:49;101761.13;;;16.18;64.12
50356;BME280;36264;51.296;-0.602;2023-04-29T06:59:15;101768.31;;;16.36;63.61
50356;BME280;36264;51.296;-0.602;2023-04-29T07:01:40;101770.88;;;16.38;63.87
50356;BME280;36264;51.296;-0.602;2023-04-29T07:04:05;101765.72;;;16.35;64.24
50356;BME280;36264;51.296;-0.602;2023-04-29T07:06:31;101773.44;;;16.39;64.40
50356;BME280;36264;51.296;-0.602;2023-04-29T07:08:56;101776.00;;;16.41;64.64
50356;BME280;36264;51.296;-0.602;2023-04-29T07:11:22;101774.03;;;16.46;64.59
50356;BME280;36264;51.296;-0.602;2023-04-29T07:13:49;101772.88;;;16.53;64.71
50356;BME280;36264;51.296;-0.602;2023-04-29T07:16:16;101776.53;;;16.49;64.89
50356;BME280;36264;51.296;-0.602;2023-04-29T07:18:44;101783.31;;;16.55;64.90
50356;BME280;36264;51.296;-0.602;2023-04-29T07:21:09;101785.53;;;16.65;64.84
50356;BME280;36264;51.296;-0.602;2023-04-29T07:23:35;101774.28;;;16.62;64.72
50356;BME280;36264;51.296;-0.602;2023-04-29T07:26:10;101777.00;;;17.03;64.64
50356;BME280;36264;51.296;-0.602;2023-04-29T07:28:36;101786.78;;;16.77;64.95
50356;BME280;36264;51.296;-0.602;2023-04-29T07:31:01;101780.81;;;16.74;65.26
50356;BME280;36264;51.296;-0.602;2023-04-29T07:33:27;101778.13;;;16.75;64.97
50356;BME280;36264;51.296;-0.602;2023-04-29T07:35:52;101785.94;;;16.77;65.24
50356;BME280;36264;51.296;-0.602;2023-04-29T07:38:18;101774.38;;;16.81;65.17
50356;BME280;36264;51.296;-0.602;2023-04-29T07:40:45;101780.38;;;16.84;65.33
50356;BME280;36264;51.296;-0.602;2023-04-29T07:43:10;101783.81;;;16.87;65.18
50356;BME280;36264;51.296;-0.602;2023-04-29T07:45:37;101782.84;;;16.89;65.37
50356;BME280;36264;51.296;-0.602;2023-04-29T07:48:02;101782.44;;;16.98;64.97
50356;BME280;36264;51.296;-0.602;2023-04-29T07:50:28;101796.31;;;17.02;64.80
50356;BME280;36264;51.296;-0.602;2023-04-29T07:52:53;101796.97;;;17.07;64.78
50356;BME280;36264;51.296;-0.602;2023-04-29T07:55:19;101797.50;;;17.15;64.67
50356;BME280;36264;51.296;-0.602;2023-04-29T07:57:45;101800.13;;;17.15;64.95
50356;BME280;36264;51.296;-0.602;2023-04-29T08:00:10;101790.47;;;17.16;64.71
50356;BME280;36264;51.296;-0.602;2023-04-29T08:02:36;101801.47;;;17.26;64.81
50356;BME280;36264;51.296;-0.602;2023-04-29T08:05:01;101801.47;;;17.26;64.81
50356;BME280;36264;51.296;-0.602;2023-04-29T08:07:27;101796.22;;;17.26;64.69
50356;BME280;36264;51.296;-0.602;2023-04-29T08:09:52;101794.38;;;17.28;64.42
50356;BME280;36264;51.296;-0.602;2023-04-29T08:12:18;101793.22;;;17.33;64.34
50356;BME280;36264;51.296;-0.602;2023-04-29T08:14:43;101796.41;;;17.42;64.40
50356;BME280;36264;51.296;-0.602;2023-04-29T08:17:08;101788.97;;;17.51;64.34
50356;BME280;36264;51.296;-0.602;2023-04-29T08:19:34;101786.22;;;17.54;64.08
50356;BME280;36264;51.296;-0.602;2023-04-29T08:22:00;101787.06;;;17.55;64.44
50356;BME280;36264;51.296;-0.602;2023-04-29T08:24:25;101792.19;;;17.58;64.24
50356;BME280;36264;51.296;-0.602;2023-04-29T08:26:50;101799.22;;;17.58;64.47
50356;BME280;36264;51.296;-0.602;2023-04-29T08:29:17;101791.84;;;17.66;64.22
50356;BME280;36264;51.296;-0.602;2023-04-29T08:31:42;101793.25;;;17.73;64.00
50356;BME280;36264;51.296;-0.602;2023-04-29T08:34:08;101795.81;;;17.74;63.97
50356;BME280;36264;51.296;-0.602;2023-04-29T08:36:33;101797.28;;;17.82;63.95
50356;BME280;36264;51.296;-0.602;2023-04-29T08:39:01;101794.34;;;17.89;63.92
50356;BME280;36264;51.296;-0.602;2023-04-29T08:41:26;101801.16;;;17.93;63.61
50356;BME280;36264;51.296;-0.602;2023-04-29T08:43:52;101804.22;;;18.03;63.84
50356;BME280;36264;51.296;-0.602;2023-04-29T08:46:18;101805.38;;;18.17;63.73
50356;BME280;36264;51.296;-0.602;2023-04-29T08:48:45;101806.06;;;18.20;63.80
50356;BME280;36264;51.296;-0.602;2023-04-29T08:51:11;101804.72;;;18.12;63.12
50356;BME280;36264;51.296;-0.602;2023-04-29T08:53:38;101804.66;;;18.13;63.28
50356;BME280;36264;51.296;-0.602;2023-04-29T08:56:08;101813.94;;;18.39;63.08
50356;BME280;36264;51.296;-0.602;2023-04-29T08:58:38;101816.88;;;18.33;63.11
50356;BME280;36264;51.296;-0.602;2023-04-29T09:01:07;101813.94;;;18.39;63.20
50356;BME280;36264;51.296;-0.602;2023-04-29T09:03:42;101823.19;;;18.48;63.02
50356;BME280;36264;51.296;-0.602;2023-04-29T09:06:09;101817.13;;;18.46;62.76
50356;BME280;36264;51.296;-0.602;2023-04-29T09:08:35;101823.22;;;18.29;62.91
50356;BME280;36264;51.296;-0.602;2023-04-29T09:11:01;101823.78;;;18.36;62.69
50356;BME280;36264;51.296;-0.602;2023-04-29T09:13:28;101828.25;;;18.53;62.72
50356;BME280;36264;51.296;-0.602;2023-04-29T09:15:54;101825.28;;;18.41;62.35
50356;BME280;36264;51.296;-0.602;2023-04-29T09:18:45;101827.13;;;18.76;62.36
50356;BME280;36264;51.296;-0.602;2023-04-29T09:21:11;101830.19;;;18.86;60.88
50356;BME280;36264;51.296;-0.602;2023-04-29T09:23:37;101830.81;;;18.54;62.40
50356;BME280;36264;51.296;-0.602;2023-04-29T09:26:02;101830.66;;;18.57;62.04
50356;BME280;36264;51.296;-0.602;2023-04-29T09:28:28;101830.66;;;18.57;62.23
50356;BME280;36264;51.296;-0.602;2023-04-29T09:30:53;101828.59;;;18.64;62.34
50356;BME280;36264;51.296;-0.602;2023-04-29T09:33:19;101834.09;;;18.77;62.10
50356;BME280;36264;51.296;-0.602;2023-04-29T09:35:44;101831.34;;;18.80;62.61
50356;BME280;36264;51.296;-0.602;2023-04-29T09:38:15;101830.78;;;19.10;62.16
50356;BME280;36264;51.296;-0.602;2023-04-29T09:40:42;101833.56;;;19.07;62.00
50356;BME280;36264;51.296;-0.602;2023-04-29T09:43:15;101842.31;;;19.25;61.42
50356;BME280;36264;51.296;-0.602;2023-04-29T09:45:43;101835.84;;;19.14;61.71
50356;BME280;36264;51.296;-0.602;2023-04-29T09:48:10;101839.31;;;19.15;62.18
50356;BME280;36264;51.296;-0.602;2023-04-29T09:50:39;101836.38;;;19.21;61.40
50356;BME280;36264;51.296;-0.602;2023-04-29T09:53:06;101838.47;;;19.32;61.06
50356;BME280;36264;51.296;-0.602;2023-04-29T09:58:35;101837.88;;;19.60;59.80
50356;BME280;36264;51.296;-0.602;2023-04-29T10:01:04;101842.09;;;19.29;60.90
50356;BME280;36264;51.296;-0.602;2023-04-29T10:03:34;101836.66;;;19.50;60.31
50356;BME280;36264;51.296;-0.602;2023-04-29T10:06:02;101828.06;;;19.46;60.40
50356;BME280;36264;51.296;-0.602;2023-04-29T10:08:28;101824.28;;;19.34;60.68
50356;BME280;36264;51.296;-0.602;2023-04-29T10:11:00;101827.69;;;19.54;59.29
50356;BME280;36264;51.296;-0.602;2023-04-29T10:13:27;101832.84;;;19.38;60.21
50356;BME280;36264;51.296;-0.602;2023-04-29T10:16:19;101836.50;;;19.70;59.53
50356;BME280;36264;51.296;-0.602;2023-04-29T10:18:52;101837.41;;;19.69;60.23
50356;BME280;36264;51.296;-0.602;2023-04-29T10:21:20;101837.34;;;19.71;60.13
50356;BME280;36264;51.296;-0.602;2023-04-29T10:23:48;101835.50;;;19.55;59.33
50356;BME280;36264;51.296;-0.602;2023-04-29T10:26:15;101839.53;;;19.80;59.92
50356;BME280;36264;51.296;-0.602;2023-04-29T10:28:41;101838.75;;;19.78;59.23
50356;BME280;36264;51.296;-0.602;2023-04-29T10:31:07;101844.31;;;19.72;59.41
50356;BME280;36264;51.296;-0.602;2023-04-29T10:33:34;101841.00;;;19.86;59.39
50356;BME280;36264;51.296;-0.602;2023-04-29T10:36:01;101839.72;;;19.93;59.78
50356;BME280;36264;51.296;-0.602;2023-04-29T10:41:02;101831.06;;;20.07;58.55
50356;BME280;36264;51.296;-0.602;2023-04-29T10:43:29;101834.63;;;20.06;57.92
50356;BME280;36264;51.296;-0.602;2023-04-29T10:46:21;101826.06;;;20.34;57.87
50356;BME280;36264;51.296;-0.602;2023-04-29T10:48:56;101826.75;;;20.22;56.28
50356;BME280;36264;51.296;-0.602;2023-04-29T10:51:28;101829.84;;;20.30;57.77
50356;BME280;36264;51.296;-0.602;2023-04-29T10:54:00;101820.28;;;20.27;57.50
50356;BME280;36264;51.296;-0.602;2023-04-29T10:56:46;101824.66;;;20.44;57.13
50356;BME280;36264;51.296;-0.602;2023-04-29T10:59:19;101818.25;;;20.33;56.53
50356;BME280;36264;51.296;-0.602;2023-04-29T11:01:45;101824.28;;;20.19;58.22
50356;BME280;36264;51.296;-0.602;2023-04-29T11:04:11;101816.53;;;20.32;58.21
50356;BME280;36264;51.296;-0.602;2023-04-29T11:06:39;101820.88;;;20.49;58.10
50356;BME280;36264;51.296;-0.602;2023-04-29T11:11:44;101832.03;;;20.38;57.72
50356;BME280;36264;51.296;-0.602;2023-04-29T11:14:10;101826.16;;;20.49;58.31
50356;BME280;36264;51.296;-0.602;2023-04-29T11:16:36;101823.44;;;20.50;58.15
50356;BME280;36264;51.296;-0.602;2023-04-29T11:19:08;101821.06;;;20.77;56.47
50356;BME280;36264;51.296;-0.602;2023-04-29T11:21:36;101825.66;;;20.58;57.05
50356;BME280;36264;51.296;-0.602;2023-04-29T11:24:05;101817.75;;;20.74;57.49
50356;BME280;36264;51.296;-0.602;2023-04-29T11:26:34;101823.84;;;20.90;56.55
50356;BME280;36264;51.296;-0.602;2023-04-29T11:29:00;101821.94;;;20.78;56.91
50356;BME280;36264;51.296;-0.602;2023-04-29T11:31:32;101827.84;;;20.97;56.15
50356;BME280;36264;51.296;-0.602;2023-04-29T11:33:58;101828.19;;;20.91;57.00
50356;BME280;36264;51.296;-0.602;2023-04-29T11:36:24;101830.34;;;20.85;56.89
50356;BME280;36264;51.296;-0.602;2023-04-29T11:38:52;101816.78;;;20.91;56.89
50356;BME280;36264;51.296;-0.602;2023-04-29T11:41:17;101816.44;;;20.97;56.83
50356;BME280;36264;51.296;-0.602;2023-04-29T11:43:46;101818.97;;;21.29;56.63
50356;BME280;36264;51.296;-0.602;2023-04-29T11:46:12;101806.50;;;21.31;56.65
50356;BME280;36264;51.296;-0.602;2023-04-29T11:48:45;101807.91;;;21.52;55.99
50356;BME280;36264;51.296;-0.602;2023-04-29T11:51:11;101808.59;;;21.26;55.46
50356;BME280;36264;51.296;-0.602;2023-04-29T11:53:37;101813.13;;;21.24;55.45
50356;BME280;36264;51.296;-0.602;2023-04-29T11:56:03;101801.50;;;21.26;54.79
50356;BME280;36264;51.296;-0.602;2023-04-29T11:58:29;101805.19;;;21.24;55.02
50356;BME280;36264;51.296;-0.602;2023-04-29T12:00:57;101800.59;;;21.42;54.48
50356;BME280;36264;51.296;-0.602;2023-04-29T12:03:22;101796.41;;;21.23;54.66
50356;BME280;36264;51.296;-0.602;2023-04-29T12:08:24;101795.25;;;21.58;54.70
50356;BME280;36264;51.296;-0.602;2023-04-29T12:10:51;101793.53;;;21.57;54.94
50356;BME280;36264;51.296;-0.602;2023-04-29T12:13:17;101795.91;;;21.61;55.22
50356;BME280;36264;51.296;-0.602;2023-04-29T12:15:48;101786.84;;;21.80;55.37
50356;BME280;36264;51.296;-0.602;2023-04-29T12:18:16;101788.66;;;21.79;54.95
50356;BME280;36264;51.296;-0.602;2023-04-29T12:20:42;101779.50;;;21.70;55.11
50356;BME280;36264;51.296;-0.602;2023-04-29T12:23:11;101792.75;;;22.12;54.95
50356;BME280;36264;51.296;-0.602;2023-04-29T12:25:37;101794.31;;;22.02;54.44
50356;BME280;36264;51.296;-0.602;2023-04-29T12:28:03;101792.13;;;22.08;54.62
50356;BME280;36264;51.296;-0.602;2023-04-29T12:30:28;101798.81;;;22.14;54.71
50356;BME280;36264;51.296;-0.602;2023-04-29T12:32:54;101791.78;;;22.28;54.45
50356;BME280;36264;51.296;-0.602;2023-04-29T12:35:19;101789.53;;;22.36;54.22
50356;BME280;36264;51.296;-0.602;2023-04-29T12:37:49;101794.03;;;22.75;54.59
50356;BME280;36264;51.296;-0.602;2023-04-29T12:40:15;101798.78;;;22.70;54.90
50356;BME280;36264;51.296;-0.602;2023-04-29T12:42:42;101789.16;;;22.82;54.72
50356;BME280;36264;51.296;-0.602;2023-04-29T12:45:28;101787.16;;;23.39;52.43
50356;BME280;36264;51.296;-0.602;2023-04-29T12:47:56;101790.53;;;23.41;53.89
50356;BME280;36264;51.296;-0.602;2023-04-29T12:50:35;101792.03;;;23.32;53.14
50356;BME280;36264;51.296;-0.602;2023-04-29T12:53:03;101780.34;;;23.22;54.24
50356;BME280;36264;51.296;-0.602;2023-04-29T12:55:31;101789.06;;;23.37;54.38
50356;BME280;36264;51.296;-0.602;2023-04-29T12:57:56;101781.75;;;23.27;54.09